sensor_id;sensor_type;location;lat;lon;timestamp;P1;durP1;ratioP1;P2;durP2;ratioP2
52031;SDS011;38044;45.148;39.604;2023-09-19T00:01:13;11.10;;;6.93;;
52031;SDS011;38044;45.148;39.604;2023-09-19T00:03:39;11.23;;;6.43;;
52031;SDS011;38044;45.148;39.604;2023-09-19T00:06:07;13.73;;;7.13;;
52031;SDS011;38044;45.148;39.604;2023-09-19T00:08:34;12.18;;;7.20;;
52031;SDS011;38044;45.148;39.604;2023-09-19T00:11:00;9.57;;;7.32;;
52031;SDS011;38044;45.148;39.604;2023-09-19T00:13:27;10.10;;;6.95;;
52031;SDS011;38044;45.148;39.604;2023-09-19T00:15:53;14.45;;;7.15;;
52031;SDS011;38044;45.148;39.604;2023-09-19T00:18:21;12.85;;;7.07;;
52031;SDS011;38044;45.148;39.604;2023-09-19T00:20:48;9.73;;;7.00;;
52031;SDS011;38044;45.148;39.604;2023-09-19T00:23:16;13.30;;;7.38;;
52031;SDS011;38044;45.148;39.604;2023-09-19T00:25:42;15.70;;;6.97;;
52031;SDS011;38044;45.148;39.604;2023-09-19T00:28:08;10.20;;;6.50;;
52031;SDS011;38044;45.148;39.604;2023-09-19T00:30:34;13.80;;;7.28;;
52031;SDS011;38044;45.148;39.604;2023-09-19T00:33:01;11.15;;;7.03;;
52031;SDS011;38044;45.148;39.604;2023-09-19T00:35:30;10.85;;;6.75;;
52031;SDS011;38044;45.148;39.604;2023-09-19T00:37:56;12.15;;;7.18;;
52031;SDS011;38044;45.148;39.604;2023-09-19T00:40:22;10.25;;;7.45;;
52031;SDS011;38044;45.148;39.604;2023-09-19T00:42:49;10.05;;;7.25;;
52031;SDS011;38044;45.148;39.604;2023-09-19T00:45:16;10.68;;;7.15;;
52031;SDS011;38044;45.148;39.604;2023-09-19T00:47:50;16.50;;;8.07;;
52031;SDS011;38044;45.148;39.604;2023-09-19T00:50:21;9.68;;;7.10;;
52031;SDS011;38044;45.148;39.604;2023-09-19T00:52:48;11.35;;;7.07;;
52031;SDS011;38044;45.148;39.604;2023-09-19T00:55:15;11.18;;;7.47;;
52031;SDS011;38044;45.148;39.604;2023-09-19T00:57:44;15.30;;;8.60;;
52031;SDS011;38044;45.148;39.604;2023-09-19T01:00:12;16.80;;;7.78;;
52031;SDS011;38044;45.148;39.604;2023-09-19T01:02:41;13.52;;;7.53;;
52031;SDS011;38044;45.148;39.604;2023-09-19T01:05:08;14.77;;;7.50;;
52031;SDS011;38044;45.148;39.604;2023-09-19T01:07:35;12.38;;;8.10;;
52031;SDS011;38044;45.148;39.604;2023-09-19T01:10:03;9.82;;;6.95;;
52031;SDS011;38044;45.148;39.604;2023-09-19T01:23:28;9.48;;;7.35;;
52031;SDS011;38044;45.148;39.604;2023-09-19T01:29:34;10.68;;;6.68;;
52031;SDS011;38044;45.148;39.604;2023-09-19T01:32:15;11.30;;;7.38;;
52031;SDS011;38044;45.148;39.604;2023-09-19T01:45:45;9.90;;;7.70;;
52031;SDS011;38044;45.148;39.604;2023-09-19T01:51:07;11.93;;;8.00;;
52031;SDS011;38044;45.148;39.604;2023-09-19T01:53:49;11.40;;;7.75;;
52031;SDS011;38044;45.148;39.604;2023-09-19T01:56:31;10.55;;;7.63;;
52031;SDS011;38044;45.148;39.604;2023-09-19T01:59:04;14.02;;;7.82;;
52031;SDS011;38044;45.148;39.604;2023-09-19T02:04:02;9.38;;;7.75;;
52031;SDS011;38044;45.148;39.604;2023-09-19T02:06:28;10.43;;;7.88;;
52031;SDS011;38044;45.148;39.604;2023-09-19T02:08:54;11.98;;;7.95;;
52031;SDS011;38044;45.148;39.604;2023-09-19T02:11:20;12.25;;;8.25;;
52031;SDS011;38044;45.148;39.604;2023-09-19T02:13:46;11.85;;;8.80;;
52031;SDS011;38044;45.148;39.604;2023-09-19T02:16:12;11.35;;;8.50;;
52031;SDS011;38044;45.148;39.604;2023-09-19T02:18:42;10.73;;;7.82;;
52031;SDS011;38044;45.148;39.604;2023-09-19T02:21:08;11.48;;;7.88;;
52031;SDS011;38044;45.148;39.604;2023-09-19T02:23:37;12.35;;;7.95;;
52031;SDS011;38044;45.148;39.604;2023-09-19T02:26:04;13.35;;;7.82;;
52031;SDS011;38044;45.148;39.604;2023-09-19T02:28:30;9.18;;;7.00;;
52031;SDS011;38044;45.148;39.604;2023-09-19T02:30:57;9.68;;;7.88;;
52031;SDS011;38044;45.148;39.604;2023-09-19T02:33:25;13.50;;;8.00;;
52031;SDS011;38044;45.148;39.604;2023-09-19T02:35:55;11.88;;;8.10;;
52031;SDS011;38044;45.148;39.604;2023-09-19T02:38:25;8.63;;;7.45;;
52031;SDS011;38044;45.148;39.604;2023-09-19T02:40:51;13.27;;;7.80;;
52031;SDS011;38044;45.148;39.604;2023-09-19T02:43:18;10.73;;;8.07;;
52031;SDS011;38044;45.148;39.604;2023-09-19T02:45:47;11.77;;;7.78;;
52031;SDS011;38044;45.148;39.604;2023-09-19T02:48:18;14.85;;;7.68;;
52031;SDS011;38044;45.148;39.604;2023-09-19T02:50:44;10.15;;;7.50;;
52031;SDS011;38044;45.148;39.604;2023-09-19T02:53:11;11.18;;;8.43;;
52031;SDS011;38044;45.148;39.604;2023-09-19T02:55:40;8.18;;;7.15;;
52031;SDS011;38044;45.148;39.604;2023-09-19T02:58:06;12.32;;;7.28;;
52031;SDS011;38044;45.148;39.604;2023-09-19T03:00:39;10.45;;;7.40;;
52031;SDS011;38044;45.148;39.604;2023-09-19T03:03:14;12.68;;;7.13;;
52031;SDS011;38044;45.148;39.604;2023-09-19T03:05:41;10.60;;;7.80;;
52031;SDS011;38044;45.148;39.604;2023-09-19T03:08:12;12.10;;;7.65;;
52031;SDS011;38044;45.148;39.604;2023-09-19T03:10:40;14.52;;;8.30;;
52031;SDS011;38044;45.148;39.604;2023-09-19T03:13:07;13.93;;;9.18;;
52031;SDS011;38044;45.148;39.604;2023-09-19T03:15:35;22.23;;;12.18;;
52031;SDS011;38044;45.148;39.604;2023-09-19T03:18:04;20.23;;;11.82;;
52031;SDS011;38044;45.148;39.604;2023-09-19T03:20:31;15.07;;;9.48;;
52031;SDS011;38044;45.148;39.604;2023-09-19T03:22:56;11.40;;;8.05;;
52031;SDS011;38044;45.148;39.604;2023-09-19T03:25:22;11.27;;;7.85;;
52031;SDS011;38044;45.148;39.604;2023-09-19T03:27:49;14.90;;;8.18;;
52031;SDS011;38044;45.148;39.604;2023-09-19T03:30:16;12.60;;;7.57;;
52031;SDS011;38044;45.148;39.604;2023-09-19T03:32:44;8.43;;;7.50;;
52031;SDS011;38044;45.148;39.604;2023-09-19T03:35:11;12.13;;;8.07;;
52031;SDS011;38044;45.148;39.604;2023-09-19T03:37:39;8.50;;;7.07;;
52031;SDS011;38044;45.148;39.604;2023-09-19T03:40:11;9.27;;;7.50;;
52031;SDS011;38044;45.148;39.604;2023-09-19T03:42:41;9.90;;;6.60;;
52031;SDS011;38044;45.148;39.604;2023-09-19T03:45:08;15.55;;;7.60;;
52031;SDS011;38044;45.148;39.604;2023-09-19T03:47:38;11.57;;;6.85;;
52031;SDS011;38044;45.148;39.604;2023-09-19T03:50:05;14.15;;;7.47;;
52031;SDS011;38044;45.148;39.604;2023-09-19T03:52:36;11.73;;;7.05;;
52031;SDS011;38044;45.148;39.604;2023-09-19T03:55:02;11.35;;;7.13;;
52031;SDS011;38044;45.148;39.604;2023-09-19T03:57:30;11.02;;;7.60;;
52031;SDS011;38044;45.148;39.604;2023-09-19T03:59:56;11.25;;;7.47;;
52031;SDS011;38044;45.148;39.604;2023-09-19T04:02:22;11.25;;;6.55;;
52031;SDS011;38044;45.148;39.604;2023-09-19T04:04:49;8.77;;;6.07;;
52031;SDS011;38044;45.148;39.604;2023-09-19T04:07:16;11.00;;;6.20;;
52031;SDS011;38044;45.148;39.604;2023-09-19T04:09:44;10.10;;;6.53;;
52031;SDS011;38044;45.148;39.604;2023-09-19T04:12:11;8.35;;;6.25;;
52031;SDS011;38044;45.148;39.604;2023-09-19T04:14:37;6.53;;;5.53;;
52031;SDS011;38044;45.148;39.604;2023-09-19T04:17:04;9.80;;;6.50;;
52031;SDS011;38044;45.148;39.604;2023-09-19T04:19:30;8.75;;;5.88;;
52031;SDS011;38044;45.148;39.604;2023-09-19T04:21:56;10.68;;;5.88;;
52031;SDS011;38044;45.148;39.604;2023-09-19T04:24:22;27.20;;;6.70;;
52031;SDS011;38044;45.148;39.604;2023-09-19T04:26:48;9.18;;;5.68;;
52031;SDS011;38044;45.148;39.604;2023-09-19T04:29:14;8.30;;;5.00;;
52031;SDS011;38044;45.148;39.604;2023-09-19T04:31:40;8.75;;;5.63;;
52031;SDS011;38044;45.148;39.604;2023-09-19T04:34:09;11.02;;;5.72;;
52031;SDS011;38044;45.148;39.604;2023-09-19T04:36:35;7.63;;;5.40;;
52031;SDS011;38044;45.148;39.604;2023-09-19T04:39:02;8.13;;;4.97;;
52031;SDS011;38044;45.148;39.604;2023-09-19T04:41:32;9.50;;;6.00;;
52031;SDS011;38044;45.148;39.604;2023-09-19T04:43:59;6.80;;;5.13;;
52031;SDS011;38044;45.148;39.604;2023-09-19T04:46:25;23.33;;;5.80;;
52031;SDS011;38044;45.148;39.604;2023-09-19T04:48:51;7.80;;;4.95;;
52031;SDS011;38044;45.148;39.604;2023-09-19T04:51:17;29.77;;;7.63;;
52031;SDS011;38044;45.148;39.604;2023-09-19T04:53:44;7.03;;;5.10;;
52031;SDS011;38044;45.148;39.604;2023-09-19T04:56:10;6.60;;;4.80;;
52031;SDS011;38044;45.148;39.604;2023-09-19T04:58:35;7.57;;;5.43;;
52031;SDS011;38044;45.148;39.604;2023-09-19T05:01:01;9.63;;;5.45;;
52031;SDS011;38044;45.148;39.604;2023-09-19T05:03:30;7.95;;;4.90;;
52031;SDS011;38044;45.148;39.604;2023-09-19T05:05:56;7.30;;;5.38;;
52031;SDS011;38044;45.148;39.604;2023-09-19T05:08:22;10.55;;;5.50;;
52031;SDS011;38044;45.148;39.604;2023-09-19T05:10:48;7.80;;;5.32;;
52031;SDS011;38044;45.148;39.604;2023-09-19T05:13:14;11.05;;;6.10;;
52031;SDS011;38044;45.148;39.604;2023-09-19T05:15:40;7.10;;;5.55;;
52031;SDS011;38044;45.148;39.604;2023-09-19T05:18:06;8.35;;;5.97;;
52031;SDS011;38044;45.148;39.604;2023-09-19T05:20:32;8.45;;;5.45;;
52031;SDS011;38044;45.148;39.604;2023-09-19T05:23:00;8.25;;;5.10;;
52031;SDS011;38044;45.148;39.604;2023-09-19T05:25:28;6.63;;;4.55;;
52031;SDS011;38044;45.148;39.604;2023-09-19T05:28:03;7.72;;;4.80;;
52031;SDS011;38044;45.148;39.604;2023-09-19T05:30:33;11.15;;;5.43;;
52031;SDS011;38044;45.148;39.604;2023-09-19T05:33:01;11.80;;;4.97;;
52031;SDS011;38044;45.148;39.604;2023-09-19T05:35:29;7.15;;;4.78;;
52031;SDS011;38044;45.148;39.604;2023-09-19T05:37:55;6.50;;;4.28;;
52031;SDS011;38044;45.148;39.604;2023-09-19T05:40:21;6.90;;;4.10;;
52031;SDS011;38044;45.148;39.604;2023-09-19T05:42:47;5.20;;;4.13;;
52031;SDS011;38044;45.148;39.604;2023-09-19T05:45:13;6.43;;;4.22;;
52031;SDS011;38044;45.148;39.604;2023-09-19T05:47:39;13.07;;;5.65;;
52031;SDS011;38044;45.148;39.604;2023-09-19T05:50:11;6.57;;;4.10;;
52031;SDS011;38044;45.148;39.604;2023-09-19T05:52:37;6.20;;;3.85;;
52031;SDS011;38044;45.148;39.604;2023-09-19T05:55:07;10.43;;;3.90;;
52031;SDS011;38044;45.148;39.604;2023-09-19T05:57:33;6.25;;;4.22;;
52031;SDS011;38044;45.148;39.604;2023-09-19T06:00:08;5.43;;;3.33;;
52031;SDS011;38044;45.148;39.604;2023-09-19T06:02:36;12.07;;;4.55;;
52031;SDS011;38044;45.148;39.604;2023-09-19T06:05:05;8.45;;;4.03;;
52031;SDS011;38044;45.148;39.604;2023-09-19T06:10:03;12.88;;;4.07;;
52031;SDS011;38044;45.148;39.604;2023-09-19T06:12:33;13.27;;;3.90;;
52031;SDS011;38044;45.148;39.604;2023-09-19T06:15:04;9.52;;;3.75;;
52031;SDS011;38044;45.148;39.604;2023-09-19T06:17:31;7.85;;;3.58;;
52031;SDS011;38044;45.148;39.604;2023-09-19T06:19:57;6.68;;;3.28;;
52031;SDS011;38044;45.148;39.604;2023-09-19T06:22:22;9.55;;;3.72;;
52031;SDS011;38044;45.148;39.604;2023-09-19T06:24:49;6.40;;;4.28;;
52031;SDS011;38044;45.148;39.604;2023-09-19T06:27:15;6.55;;;4.03;;
52031;SDS011;38044;45.148;39.604;2023-09-19T06:29:41;6.13;;;3.30;;
52031;SDS011;38044;45.148;39.604;2023-09-19T06:32:07;7.25;;;3.13;;
52031;SDS011;38044;45.148;39.604;2023-09-19T06:34:34;6.30;;;3.33;;
52031;SDS011;38044;45.148;39.604;2023-09-19T06:37:00;5.40;;;3.10;;
52031;SDS011;38044;45.148;39.604;2023-09-19T06:39:26;5.80;;;3.10;;
52031;SDS011;38044;45.148;39.604;2023-09-19T06:41:52;7.15;;;3.03;;
52031;SDS011;38044;45.148;39.604;2023-09-19T06:44:19;4.10;;;3.00;;
52031;SDS011;38044;45.148;39.604;2023-09-19T06:46:47;4.35;;;2.83;;
52031;SDS011;38044;45.148;39.604;2023-09-19T06:49:16;6.88;;;2.50;;
52031;SDS011;38044;45.148;39.604;2023-09-19T06:51:42;11.75;;;3.88;;
52031;SDS011;38044;45.148;39.604;2023-09-19T06:54:09;6.15;;;3.30;;
52031;SDS011;38044;45.148;39.604;2023-09-19T06:56:35;5.95;;;3.05;;
52031;SDS011;38044;45.148;39.604;2023-09-19T06:59:01;4.40;;;2.60;;
52031;SDS011;38044;45.148;39.604;2023-09-19T07:01:28;8.43;;;2.78;;
52031;SDS011;38044;45.148;39.604;2023-09-19T07:03:55;10.35;;;3.45;;
52031;SDS011;38044;45.148;39.604;2023-09-19T07:06:20;4.75;;;2.63;;
52031;SDS011;38044;45.148;39.604;2023-09-19T07:08:46;3.58;;;2.42;;
52031;SDS011;38044;45.148;39.604;2023-09-19T07:11:14;6.53;;;2.10;;
52031;SDS011;38044;45.148;39.604;2023-09-19T07:13:40;3.42;;;2.50;;
52031;SDS011;38044;45.148;39.604;2023-09-19T07:16:06;7.57;;;2.17;;
52031;SDS011;38044;45.148;39.604;2023-09-19T07:18:35;6.97;;;2.30;;
52031;SDS011;38044;45.148;39.604;2023-09-19T07:21:02;10.82;;;2.67;;
52031;SDS011;38044;45.148;39.604;2023-09-19T07:23:30;5.65;;;2.40;;
52031;SDS011;38044;45.148;39.604;2023-09-19T07:26:00;3.63;;;2.40;;
52031;SDS011;38044;45.148;39.604;2023-09-19T07:28:27;3.13;;;2.58;;
52031;SDS011;38044;45.148;39.604;2023-09-19T07:30:53;4.43;;;2.35;;
52031;SDS011;38044;45.148;39.604;2023-09-19T07:33:19;10.48;;;2.70;;
52031;SDS011;38044;45.148;39.604;2023-09-19T07:35:46;3.72;;;2.65;;
52031;SDS011;38044;45.148;39.604;2023-09-19T07:38:12;14.80;;;3.28;;
52031;SDS011;38044;45.148;39.604;2023-09-19T07:40:38;5.70;;;2.92;;
52031;SDS011;38044;45.148;39.604;2023-09-19T07:43:04;4.63;;;2.40;;
52031;SDS011;38044;45.148;39.604;2023-09-19T07:45:32;3.08;;;2.00;;
52031;SDS011;38044;45.148;39.604;2023-09-19T07:47:58;3.10;;;2.30;;
52031;SDS011;38044;45.148;39.604;2023-09-19T07:50:26;6.72;;;2.08;;
52031;SDS011;38044;45.148;39.604;2023-09-19T07:52:53;4.63;;;2.45;;
52031;SDS011;38044;45.148;39.604;2023-09-19T07:55:21;3.15;;;2.10;;
52031;SDS011;38044;45.148;39.604;2023-09-19T07:57:50;2.20;;;2.00;;
52031;SDS011;38044;45.148;39.604;2023-09-19T08:00:19;35.47;;;4.22;;
52031;SDS011;38044;45.148;39.604;2023-09-19T08:02:45;5.63;;;2.00;;
52031;SDS011;38044;45.148;39.604;2023-09-19T08:05:12;2.83;;;1.67;;
52031;SDS011;38044;45.148;39.604;2023-09-19T08:07:42;2.92;;;1.73;;
52031;SDS011;38044;45.148;39.604;2023-09-19T08:10:13;6.70;;;1.75;;
52031;SDS011;38044;45.148;39.604;2023-09-19T08:12:41;4.05;;;1.80;;
52031;SDS011;38044;45.148;39.604;2023-09-19T08:15:12;3.50;;;1.90;;
52031;SDS011;38044;45.148;39.604;2023-09-19T08:17:39;30.73;;;4.15;;
52031;SDS011;38044;45.148;39.604;2023-09-19T08:20:05;3.08;;;2.15;;
52031;SDS011;38044;45.148;39.604;2023-09-19T08:22:32;2.67;;;2.35;;
52031;SDS011;38044;45.148;39.604;2023-09-19T08:24:58;4.25;;;1.95;;
52031;SDS011;38044;45.148;39.604;2023-09-19T08:27:24;2.00;;;1.73;;
52031;SDS011;38044;45.148;39.604;2023-09-19T08:29:53;3.95;;;1.77;;
52031;SDS011;38044;45.148;39.604;2023-09-19T08:32:19;4.32;;;1.95;;
52031;SDS011;38044;45.148;39.604;2023-09-19T08:34:49;7.57;;;2.13;;
52031;SDS011;38044;45.148;39.604;2023-09-19T08:37:15;4.55;;;1.88;;
52031;SDS011;38044;45.148;39.604;2023-09-19T08:39:43;6.60;;;1.80;;
52031;SDS011;38044;45.148;39.604;2023-09-19T08:42:09;7.03;;;1.75;;
52031;SDS011;38044;45.148;39.604;2023-09-19T08:44:37;12.35;;;2.30;;
52031;SDS011;38044;45.148;39.604;2023-09-19T08:47:14;8.75;;;2.45;;
52031;SDS011;38044;45.148;39.604;2023-09-19T08:49:48;5.95;;;1.75;;
52031;SDS011;38044;45.148;39.604;2023-09-19T08:52:27;18.38;;;2.65;;
52031;SDS011;38044;45.148;39.604;2023-09-19T08:55:02;14.95;;;1.95;;
52031;SDS011;38044;45.148;39.604;2023-09-19T08:57:35;14.25;;;2.10;;
52031;SDS011;38044;45.148;39.604;2023-09-19T09:00:07;4.47;;;2.40;;
52031;SDS011;38044;45.148;39.604;2023-09-19T09:02:40;6.13;;;2.08;;
52031;SDS011;38044;45.148;39.604;2023-09-19T09:05:10;10.25;;;1.98;;
52031;SDS011;38044;45.148;39.604;2023-09-19T09:07:40;7.18;;;2.25;;
52031;SDS011;38044;45.148;39.604;2023-09-19T09:10:06;2.25;;;1.58;;
52031;SDS011;38044;45.148;39.604;2023-09-19T09:12:33;7.35;;;1.63;;
52031;SDS011;38044;45.148;39.604;2023-09-19T09:15:02;3.65;;;1.70;;
52031;SDS011;38044;45.148;39.604;2023-09-19T09:17:29;5.53;;;1.75;;
52031;SDS011;38044;45.148;39.604;2023-09-19T09:19:56;4.07;;;1.92;;
52031;SDS011;38044;45.148;39.604;2023-09-19T09:22:22;6.68;;;2.00;;
52031;SDS011;38044;45.148;39.604;2023-09-19T09:24:52;4.15;;;1.73;;
52031;SDS011;38044;45.148;39.604;2023-09-19T09:27:28;3.80;;;1.65;;
52031;SDS011;38044;45.148;39.604;2023-09-19T09:29:54;3.88;;;1.67;;
52031;SDS011;38044;45.148;39.604;2023-09-19T09:32:24;2.78;;;1.90;;
52031;SDS011;38044;45.148;39.604;2023-09-19T09:34:55;5.30;;;1.73;;
52031;SDS011;38044;45.148;39.604;2023-09-19T09:37:23;6.13;;;1.63;;
52031;SDS011;38044;45.148;39.604;2023-09-19T09:40:01;2.92;;;1.80;;
52031;SDS011;38044;45.148;39.604;2023-09-19T09:42:40;5.88;;;1.80;;
52031;SDS011;38044;45.148;39.604;2023-09-19T09:45:15;2.58;;;1.80;;
52031;SDS011;38044;45.148;39.604;2023-09-19T09:50:23;3.70;;;1.75;;
52031;SDS011;38044;45.148;39.604;2023-09-19T09:55:59;2.70;;;1.58;;
52031;SDS011;38044;45.148;39.604;2023-09-19T09:58:48;2.78;;;1.73;;
52031;SDS011;38044;45.148;39.604;2023-09-19T10:01:18;3.63;;;1.63;;
52031;SDS011;38044;45.148;39.604;2023-09-19T10:03:46;5.40;;;2.00;;
52031;SDS011;38044;45.148;39.604;2023-09-19T10:06:16;4.40;;;1.77;;
52031;SDS011;38044;45.148;39.604;2023-09-19T10:08:58;4.43;;;1.63;;
52031;SDS011;38044;45.148;39.604;2023-09-19T10:14:19;5.13;;;1.65;;
52031;SDS011;38044;45.148;39.604;2023-09-19T10:16:50;7.18;;;1.60;;
52031;SDS011;38044;45.148;39.604;2023-09-19T10:19:29;34.53;;;3.78;;
52031;SDS011;38044;45.148;39.604;2023-09-19T10:21:59;5.00;;;1.70;;
52031;SDS011;38044;45.148;39.604;2023-09-19T10:24:27;2.47;;;1.40;;
52031;SDS011;38044;45.148;39.604;2023-09-19T10:26:53;10.52;;;2.05;;
52031;SDS011;38044;45.148;39.604;2023-09-19T10:29:21;5.28;;;1.55;;
52031;SDS011;38044;45.148;39.604;2023-09-19T10:31:47;2.00;;;1.50;;
52031;SDS011;38044;45.148;39.604;2023-09-19T10:34:17;3.30;;;1.65;;
52031;SDS011;38044;45.148;39.604;2023-09-19T10:36:44;9.00;;;1.92;;
52031;SDS011;38044;45.148;39.604;2023-09-19T10:39:15;3.50;;;1.48;;
52031;SDS011;38044;45.148;39.604;2023-09-19T10:41:47;6.32;;;1.90;;
52031;SDS011;38044;45.148;39.604;2023-09-19T10:44:25;25.58;;;2.83;;
52031;SDS011;38044;45.148;39.604;2023-09-19T10:46:52;3.30;;;1.48;;
52031;SDS011;38044;45.148;39.604;2023-09-19T10:49:21;4.28;;;1.70;;
52031;SDS011;38044;45.148;39.604;2023-09-19T10:51:49;4.78;;;1.70;;
52031;SDS011;38044;45.148;39.604;2023-09-19T10:54:20;4.75;;;1.70;;
52031;SDS011;38044;45.148;39.604;2023-09-19T10:56:52;5.93;;;1.30;;
52031;SDS011;38044;45.148;39.604;2023-09-19T10:59:20;6.30;;;1.73;;
52031;SDS011;38044;45.148;39.604;2023-09-19T11:01:48;3.20;;;1.33;;
52031;SDS011;38044;45.148;39.604;2023-09-19T11:09:52;8.38;;;1.80;;
52031;SDS011;38044;45.148;39.604;2023-09-19T11:14:54;3.08;;;1.60;;
52031;SDS011;38044;45.148;39.604;2023-09-19T11:30:47;5.75;;;1.58;;
52031;SDS011;38044;45.148;39.604;2023-09-19T11:35:58;2.38;;;1.60;;
52031;SDS011;38044;45.148;39.604;2023-09-19T11:46:28;3.20;;;1.58;;
52031;SDS011;38044;45.148;39.604;2023-09-19T11:49:04;3.35;;;1.52;;
52031;SDS011;38044;45.148;39.604;2023-09-19T11:51:45;3.15;;;1.60;;
52031;SDS011;38044;45.148;39.604;2023-09-19T11:54:13;7.75;;;1.90;;
52031;SDS011;38044;45.148;39.604;2023-09-19T11:56:51;4.78;;;1.73;;
52031;SDS011;38044;45.148;39.604;2023-09-19T11:59:26;4.55;;;1.60;;
52031;SDS011;38044;45.148;39.604;2023-09-19T12:01:57;5.28;;;1.52;;
52031;SDS011;38044;45.148;39.604;2023-09-19T12:04:41;3.08;;;1.40;;
52031;SDS011;38044;45.148;39.604;2023-09-19T12:07:16;2.75;;;1.40;;
52031;SDS011;38044;45.148;39.604;2023-09-19T12:12:22;5.88;;;1.77;;
52031;SDS011;38044;45.148;39.604;2023-09-19T12:14:52;6.95;;;1.88;;
52031;SDS011;38044;45.148;39.604;2023-09-19T12:17:19;4.90;;;2.08;;
52031;SDS011;38044;45.148;39.604;2023-09-19T12:19:55;2.20;;;1.27;;
52031;SDS011;38044;45.148;39.604;2023-09-19T12:22:22;3.38;;;1.55;;
52031;SDS011;38044;45.148;39.604;2023-09-19T12:24:48;2.00;;;1.48;;
52031;SDS011;38044;45.148;39.604;2023-09-19T12:27:16;1.83;;;1.13;;
52031;SDS011;38044;45.148;39.604;2023-09-19T12:29:42;3.53;;;1.95;;
52031;SDS011;38044;45.148;39.604;2023-09-19T12:32:15;3.78;;;1.55;;
52031;SDS011;38044;45.148;39.604;2023-09-19T12:34:52;3.47;;;1.52;;
52031;SDS011;38044;45.148;39.604;2023-09-19T12:37:19;297.05;;;25.15;;
52031;SDS011;38044;45.148;39.604;2023-09-19T12:40:04;2.72;;;1.70;;
52031;SDS011;38044;45.148;39.604;2023-09-19T12:42:43;3.63;;;1.75;;
52031;SDS011;38044;45.148;39.604;2023-09-19T12:45:10;11.63;;;2.03;;
52031;SDS011;38044;45.148;39.604;2023-09-19T12:47:38;4.38;;;2.20;;
52031;SDS011;38044;45.148;39.604;2023-09-19T12:50:09;3.28;;;1.75;;
52031;SDS011;38044;45.148;39.604;2023-09-19T12:52:43;20.92;;;3.17;;
52031;SDS011;38044;45.148;39.604;2023-09-19T12:55:20;3.10;;;1.95;;
52031;SDS011;38044;45.148;39.604;2023-09-19T13:00:40;7.28;;;2.28;;
52031;SDS011;38044;45.148;39.604;2023-09-19T13:05:51;3.53;;;1.52;;
52031;SDS011;38044;45.148;39.604;2023-09-19T13:08:28;12.07;;;2.03;;
52031;SDS011;38044;45.148;39.604;2023-09-19T13:11:01;3.70;;;1.27;;
52031;SDS011;38044;45.148;39.604;2023-09-19T13:13:27;4.82;;;1.42;;
52031;SDS011;38044;45.148;39.604;2023-09-19T13:15:54;9.98;;;2.22;;
52031;SDS011;38044;45.148;39.604;2023-09-19T13:18:23;3.92;;;1.30;;
52031;SDS011;38044;45.148;39.604;2023-09-19T13:21:06;2.30;;;1.50;;
52031;SDS011;38044;45.148;39.604;2023-09-19T13:23:42;2.92;;;1.58;;
52031;SDS011;38044;45.148;39.604;2023-09-19T13:26:09;4.80;;;1.98;;
52031;SDS011;38044;45.148;39.604;2023-09-19T13:28:37;5.57;;;1.30;;
52031;SDS011;38044;45.148;39.604;2023-09-19T13:31:04;4.30;;;1.38;;
52031;SDS011;38044;45.148;39.604;2023-09-19T13:33:30;2.65;;;1.65;;
52031;SDS011;38044;45.148;39.604;2023-09-19T13:35:57;5.97;;;1.67;;
52031;SDS011;38044;45.148;39.604;2023-09-19T13:38:23;5.43;;;1.67;;
52031;SDS011;38044;45.148;39.604;2023-09-19T13:40:49;5.55;;;1.60;;
52031;SDS011;38044;45.148;39.604;2023-09-19T13:43:17;4.10;;;1.38;;
52031;SDS011;38044;45.148;39.604;2023-09-19T13:45:43;3.17;;;1.30;;
52031;SDS011;38044;45.148;39.604;2023-09-19T13:48:09;2.88;;;1.30;;
52031;SDS011;38044;45.148;39.604;2023-09-19T13:50:38;3.08;;;1.40;;
52031;SDS011;38044;45.148;39.604;2023-09-19T13:53:07;6.53;;;1.60;;
52031;SDS011;38044;45.148;39.604;2023-09-19T13:55:34;4.45;;;1.52;;
52031;SDS011;38044;45.148;39.604;2023-09-19T13:58:00;3.13;;;1.40;;
52031;SDS011;38044;45.148;39.604;2023-09-19T14:00:26;4.88;;;1.75;;
52031;SDS011;38044;45.148;39.604;2023-09-19T14:02:52;2.83;;;1.40;;
52031;SDS011;38044;45.148;39.604;2023-09-19T14:05:18;2.38;;;1.48;;
52031;SDS011;38044;45.148;39.604;2023-09-19T14:07:45;3.67;;;1.60;;
52031;SDS011;38044;45.148;39.604;2023-09-19T14:10:11;4.57;;;1.67;;
52031;SDS011;38044;45.148;39.604;2023-09-19T14:12:38;3.00;;;1.23;;
52031;SDS011;38044;45.148;39.604;2023-09-19T14:15:06;5.97;;;1.40;;
52031;SDS011;38044;45.148;39.604;2023-09-19T14:17:33;3.25;;;1.50;;
52031;SDS011;38044;45.148;39.604;2023-09-19T14:19:59;13.27;;;2.30;;
52031;SDS011;38044;45.148;39.604;2023-09-19T14:22:25;6.32;;;1.50;;
52031;SDS011;38044;45.148;39.604;2023-09-19T14:24:51;3.15;;;1.75;;
52031;SDS011;38044;45.148;39.604;2023-09-19T14:27:18;4.65;;;1.90;;
52031;SDS011;38044;45.148;39.604;2023-09-19T14:29:44;2.08;;;1.65;;
52031;SDS011;38044;45.148;39.604;2023-09-19T14:32:10;7.30;;;1.55;;
52031;SDS011;38044;45.148;39.604;2023-09-19T14:34:36;19.77;;;2.20;;
52031;SDS011;38044;45.148;39.604;2023-09-19T14:37:07;4.15;;;1.65;;
52031;SDS011;38044;45.148;39.604;2023-09-19T14:39:33;10.23;;;2.00;;
52031;SDS011;38044;45.148;39.604;2023-09-19T14:41:59;2.75;;;1.60;;
52031;SDS011;38044;45.148;39.604;2023-09-19T14:44:25;5.47;;;1.63;;
52031;SDS011;38044;45.148;39.604;2023-09-19T14:46:53;5.50;;;1.70;;
52031;SDS011;38044;45.148;39.604;2023-09-19T14:49:20;11.30;;;1.98;;
52031;SDS011;38044;45.148;39.604;2023-09-19T14:51:45;5.03;;;1.83;;
52031;SDS011;38044;45.148;39.604;2023-09-19T14:54:13;5.43;;;1.90;;
52031;SDS011;38044;45.148;39.604;2023-09-19T14:56:42;3.65;;;1.70;;
52031;SDS011;38044;45.148;39.604;2023-09-19T14:59:08;2.60;;;1.70;;
52031;SDS011;38044;45.148;39.604;2023-09-19T15:01:36;5.82;;;1.85;;
52031;SDS011;38044;45.148;39.604;2023-09-19T15:04:03;4.85;;;1.65;;
52031;SDS011;38044;45.148;39.604;2023-09-19T15:06:29;4.10;;;1.60;;
52031;SDS011;38044;45.148;39.604;2023-09-19T15:08:55;2.22;;;1.70;;
52031;SDS011;38044;45.148;39.604;2023-09-19T15:11:22;6.35;;;1.90;;
52031;SDS011;38044;45.148;39.604;2023-09-19T15:13:50;5.18;;;1.60;;
52031;SDS011;38044;45.148;39.604;2023-09-19T15:16:16;4.18;;;1.60;;
52031;SDS011;38044;45.148;39.604;2023-09-19T15:18:44;2.97;;;1.77;;
52031;SDS011;38044;45.148;39.604;2023-09-19T15:21:12;2.47;;;1.48;;
52031;SDS011;38044;45.148;39.604;2023-09-19T15:23:40;5.80;;;1.55;;
52031;SDS011;38044;45.148;39.604;2023-09-19T15:26:10;6.88;;;1.70;;
52031;SDS011;38044;45.148;39.604;2023-09-19T15:28:38;7.35;;;1.95;;
52031;SDS011;38044;45.148;39.604;2023-09-19T15:31:08;20.60;;;3.70;;
52031;SDS011;38044;45.148;39.604;2023-09-19T15:33:35;11.73;;;2.78;;
52031;SDS011;38044;45.148;39.604;2023-09-19T15:36:11;14.52;;;2.13;;
52031;SDS011;38044;45.148;39.604;2023-09-19T15:41:40;8.07;;;2.45;;
52031;SDS011;38044;45.148;39.604;2023-09-19T15:44:16;3.35;;;1.90;;
52031;SDS011;38044;45.148;39.604;2023-09-19T15:46:46;7.78;;;3.00;;
52031;SDS011;38044;45.148;39.604;2023-09-19T15:49:14;6.03;;;3.20;;
52031;SDS011;38044;45.148;39.604;2023-09-19T15:51:40;8.02;;;3.28;;
52031;SDS011;38044;45.148;39.604;2023-09-19T15:54:12;13.98;;;4.20;;
52031;SDS011;38044;45.148;39.604;2023-09-19T15:56:39;5.13;;;2.90;;
52031;SDS011;38044;45.148;39.604;2023-09-19T15:59:06;14.48;;;3.58;;
52031;SDS011;38044;45.148;39.604;2023-09-19T16:01:33;17.40;;;4.13;;
52031;SDS011;38044;45.148;39.604;2023-09-19T16:03:59;53.35;;;7.85;;